sensor_id;sensor_type;location;lat;lon;timestamp;P1;durP1;ratioP1;P2;durP2;ratioP2
7783;SDS011;19359;51.402;6.778;2022-08-21T00:00:25;4.85;;;2.35;;
7783;SDS011;19359;51.402;6.778;2022-08-21T00:02:53;5.45;;;2.50;;
7783;SDS011;19359;51.402;6.778;2022-08-21T00:05:22;3.63;;;2.67;;
7783;SDS011;19359;51.402;6.778;2022-08-21T00:07:52;5.03;;;2.53;;
7783;SDS011;19359;51.402;6.778;2022-08-21T00:10:19;4.85;;;3.03;;
7783;SDS011;19359;51.402;6.778;2022-08-21T00:12:46;4.45;;;2.58;;
7783;SDS011;19359;51.402;6.778;2022-08-21T00:15:14;2.85;;;2.63;;
7783;SDS011;19359;51.402;6.778;2022-08-21T00:17:44;6.38;;;2.47;;
7783;SDS011;19359;51.402;6.778;2022-08-21T00:20:11;8.48;;;2.85;;
7783;SDS011;19359;51.402;6.778;2022-08-21T00:22:39;4.53;;;2.63;;
7783;SDS011;19359;51.402;6.778;2022-08-21T00:25:08;9.05;;;3.03;;
7783;SDS011;19359;51.402;6.778;2022-08-21T00:27:36;7.55;;;3.00;;
7783;SDS011;19359;51.402;6.778;2022-08-21T00:30:03;2.80;;;2.38;;
7783;SDS011;19359;51.402;6.778;2022-08-21T00:32:32;9.57;;;4.22;;
7783;SDS011;19359;51.402;6.778;2022-08-21T00:34:59;6.35;;;3.00;;
7783;SDS011;19359;51.402;6.778;2022-08-21T00:37:26;3.58;;;2.78;;
7783;SDS011;19359;51.402;6.778;2022-08-21T00:39:53;7.22;;;2.83;;
7783;SDS011;19359;51.402;6.778;2022-08-21T00:42:21;5.13;;;3.08;;
7783;SDS011;19359;51.402;6.778;2022-08-21T00:44:48;6.43;;;3.53;;
7783;SDS011;19359;51.402;6.778;2022-08-21T00:47:15;3.90;;;3.10;;
7783;SDS011;19359;51.402;6.778;2022-08-21T00:49:42;6.03;;;3.30;;
7783;SDS011;19359;51.402;6.778;2022-08-21T00:52:11;6.43;;;3.33;;
7783;SDS011;19359;51.402;6.778;2022-08-21T00:54:43;4.60;;;2.97;;
7783;SDS011;19359;51.402;6.778;2022-08-21T00:57:12;5.13;;;3.50;;
7783;SDS011;19359;51.402;6.778;2022-08-21T00:59:42;3.35;;;3.03;;
7783;SDS011;19359;51.402;6.778;2022-08-21T01:02:12;4.55;;;3.33;;
7783;SDS011;19359;51.402;6.778;2022-08-21T01:04:39;5.10;;;3.35;;
7783;SDS011;19359;51.402;6.778;2022-08-21T01:07:06;6.45;;;3.20;;
7783;SDS011;19359;51.402;6.778;2022-08-21T01:09:33;13.23;;;3.38;;
7783;SDS011;19359;51.402;6.778;2022-08-21T01:12:01;4.28;;;3.90;;
7783;SDS011;19359;51.402;6.778;2022-08-21T01:14:29;3.42;;;3.10;;
7783;SDS011;19359;51.402;6.778;2022-08-21T01:16:58;3.15;;;2.95;;
7783;SDS011;19359;51.402;6.778;2022-08-21T01:19:26;8.95;;;4.13;;
7783;SDS011;19359;51.402;6.778;2022-08-21T01:21:55;6.35;;;3.40;;
7783;SDS011;19359;51.402;6.778;2022-08-21T01:24:22;4.80;;;2.92;;
7783;SDS011;19359;51.402;6.778;2022-08-21T01:26:49;5.18;;;3.35;;
7783;SDS011;19359;51.402;6.778;2022-08-21T01:29:20;6.05;;;3.85;;
7783;SDS011;19359;51.402;6.778;2022-08-21T01:31:53;4.90;;;3.28;;
7783;SDS011;19359;51.402;6.778;2022-08-21T01:34:20;5.20;;;3.55;;
7783;SDS011;19359;51.402;6.778;2022-08-21T01:36:47;3.53;;;3.17;;
7783;SDS011;19359;51.402;6.778;2022-08-21T01:39:15;7.47;;;3.55;;
7783;SDS011;19359;51.402;6.778;2022-08-21T01:41:42;3.50;;;3.20;;
7783;SDS011;19359;51.402;6.778;2022-08-21T01:44:09;3.97;;;3.38;;
7783;SDS011;19359;51.402;6.778;2022-08-21T01:46:36;5.35;;;3.58;;
7783;SDS011;19359;51.402;6.778;2022-08-21T01:49:03;3.50;;;3.22;;
7783;SDS011;19359;51.402;6.778;2022-08-21T01:51:30;3.50;;;3.28;;
7783;SDS011;19359;51.402;6.778;2022-08-21T01:53:57;5.57;;;3.85;;
7783;SDS011;19359;51.402;6.778;2022-08-21T01:56:26;3.83;;;3.47;;
7783;SDS011;19359;51.402;6.778;2022-08-21T01:58:53;7.38;;;3.75;;
7783;SDS011;19359;51.402;6.778;2022-08-21T02:01:20;4.78;;;3.85;;
7783;SDS011;19359;51.402;6.778;2022-08-21T02:03:47;4.05;;;3.75;;
7783;SDS011;19359;51.402;6.778;2022-08-21T02:06:14;8.05;;;4.18;;
7783;SDS011;19359;51.402;6.778;2022-08-21T02:08:43;4.30;;;3.90;;
7783;SDS011;19359;51.402;6.778;2022-08-21T02:11:10;4.28;;;3.90;;
7783;SDS011;19359;51.402;6.778;2022-08-21T02:13:38;4.22;;;3.28;;
7783;SDS011;19359;51.402;6.778;2022-08-21T02:16:05;3.95;;;3.65;;
7783;SDS011;19359;51.402;6.778;2022-08-21T02:18:33;4.03;;;3.63;;
7783;SDS011;19359;51.402;6.778;2022-08-21T02:21:00;4.03;;;3.70;;
7783;SDS011;19359;51.402;6.778;2022-08-21T02:23:27;10.95;;;3.95;;
7783;SDS011;19359;51.402;6.778;2022-08-21T02:25:54;4.72;;;4.05;;
7783;SDS011;19359;51.402;6.778;2022-08-21T02:28:22;6.43;;;4.15;;
7783;SDS011;19359;51.402;6.778;2022-08-21T02:30:50;7.80;;;3.80;;
7783;SDS011;19359;51.402;6.778;2022-08-21T02:33:18;3.97;;;3.55;;
7783;SDS011;19359;51.402;6.778;2022-08-21T02:35:46;3.75;;;3.20;;
7783;SDS011;19359;51.402;6.778;2022-08-21T02:38:14;4.35;;;3.97;;
7783;SDS011;19359;51.402;6.778;2022-08-21T02:40:45;3.53;;;3.22;;
7783;SDS011;19359;51.402;6.778;2022-08-21T02:43:13;5.00;;;3.97;;
7783;SDS011;19359;51.402;6.778;2022-08-21T02:45:42;5.72;;;3.47;;
7783;SDS011;19359;51.402;6.778;2022-08-21T02:48:12;4.00;;;3.70;;
7783;SDS011;19359;51.402;6.778;2022-08-21T02:50:46;4.25;;;3.90;;
7783;SDS011;19359;51.402;6.778;2022-08-21T02:53:14;4.18;;;3.70;;
7783;SDS011;19359;51.402;6.778;2022-08-21T02:55:42;5.10;;;4.75;;
7783;SDS011;19359;51.402;6.778;2022-08-21T02:58:10;4.68;;;3.88;;
7783;SDS011;19359;51.402;6.778;2022-08-21T03:00:38;4.65;;;3.85;;
7783;SDS011;19359;51.402;6.778;2022-08-21T03:03:05;5.43;;;4.00;;
7783;SDS011;19359;51.402;6.778;2022-08-21T03:05:34;3.70;;;3.42;;
7783;SDS011;19359;51.402;6.778;2022-08-21T03:08:04;5.20;;;3.75;;
7783;SDS011;19359;51.402;6.778;2022-08-21T03:10:34;5.25;;;3.70;;
7783;SDS011;19359;51.402;6.778;2022-08-21T03:13:01;6.68;;;4.20;;
7783;SDS011;19359;51.402;6.778;2022-08-21T03:15:28;8.57;;;4.45;;
7783;SDS011;19359;51.402;6.778;2022-08-21T03:17:56;7.63;;;4.22;;
7783;SDS011;19359;51.402;6.778;2022-08-21T03:20:24;7.45;;;3.85;;
7783;SDS011;19359;51.402;6.778;2022-08-21T03:22:54;3.85;;;3.42;;
7783;SDS011;19359;51.402;6.778;2022-08-21T03:25:22;4.93;;;4.50;;
7783;SDS011;19359;51.402;6.778;2022-08-21T03:27:50;3.83;;;3.53;;
7783;SDS011;19359;51.402;6.778;2022-08-21T03:30:17;6.72;;;4.80;;
7783;SDS011;19359;51.402;6.778;2022-08-21T03:32:45;5.85;;;4.20;;
7783;SDS011;19359;51.402;6.778;2022-08-21T03:35:12;6.20;;;4.30;;
7783;SDS011;19359;51.402;6.778;2022-08-21T03:37:40;5.07;;;4.18;;
7783;SDS011;19359;51.402;6.778;2022-08-21T03:40:08;4.10;;;3.72;;
7783;SDS011;19359;51.402;6.778;2022-08-21T03:42:37;7.20;;;5.13;;
7783;SDS011;19359;51.402;6.778;2022-08-21T03:45:05;7.63;;;4.35;;
7783;SDS011;19359;51.402;6.778;2022-08-21T03:47:32;7.63;;;4.72;;
7783;SDS011;19359;51.402;6.778;2022-08-21T03:50:00;9.50;;;4.78;;
7783;SDS011;19359;51.402;6.778;2022-08-21T03:52:27;4.90;;;4.28;;
7783;SDS011;19359;51.402;6.778;2022-08-21T03:54:53;4.40;;;3.92;;
7783;SDS011;19359;51.402;6.778;2022-08-21T03:57:22;5.63;;;4.63;;
7783;SDS011;19359;51.402;6.778;2022-08-21T03:59:48;6.47;;;4.55;;
7783;SDS011;19359;51.402;6.778;2022-08-21T04:02:16;6.03;;;4.80;;
7783;SDS011;19359;51.402;6.778;2022-08-21T04:04:46;7.10;;;4.43;;
7783;SDS011;19359;51.402;6.778;2022-08-21T04:07:13;10.45;;;5.03;;
7783;SDS011;19359;51.402;6.778;2022-08-21T04:09:40;5.50;;;5.00;;
7783;SDS011;19359;51.402;6.778;2022-08-21T04:12:07;5.68;;;4.97;;
7783;SDS011;19359;51.402;6.778;2022-08-21T04:14:35;7.20;;;5.38;;
7783;SDS011;19359;51.402;6.778;2022-08-21T04:17:02;6.82;;;5.63;;
7783;SDS011;19359;51.402;6.778;2022-08-21T04:19:29;5.65;;;5.05;;
7783;SDS011;19359;51.402;6.778;2022-08-21T04:21:56;13.80;;;6.68;;
7783;SDS011;19359;51.402;6.778;2022-08-21T04:24:23;7.30;;;6.53;;
7783;SDS011;19359;51.402;6.778;2022-08-21T04:26:49;11.18;;;6.43;;
7783;SDS011;19359;51.402;6.778;2022-08-21T04:29:16;9.00;;;7.68;;
7783;SDS011;19359;51.402;6.778;2022-08-21T04:31:45;7.28;;;6.68;;
7783;SDS011;19359;51.402;6.778;2022-08-21T04:34:12;14.05;;;6.85;;
7783;SDS011;19359;51.402;6.778;2022-08-21T04:36:39;8.52;;;6.65;;
7783;SDS011;19359;51.402;6.778;2022-08-21T04:39:06;11.23;;;6.65;;
7783;SDS011;19359;51.402;6.778;2022-08-21T04:41:32;13.02;;;7.90;;
7783;SDS011;19359;51.402;6.778;2022-08-21T04:44:00;8.35;;;6.70;;
7783;SDS011;19359;51.402;6.778;2022-08-21T04:46:27;7.00;;;5.82;;
7783;SDS011;19359;51.402;6.778;2022-08-21T04:48:56;11.25;;;5.95;;
7783;SDS011;19359;51.402;6.778;2022-08-21T04:51:23;12.18;;;6.30;;
7783;SDS011;19359;51.402;6.778;2022-08-21T04:53:55;11.80;;;6.18;;
7783;SDS011;19359;51.402;6.778;2022-08-21T04:56:25;7.15;;;6.45;;
7783;SDS011;19359;51.402;6.778;2022-08-21T04:58:56;9.10;;;6.38;;
7783;SDS011;19359;51.402;6.778;2022-08-21T05:01:27;9.07;;;7.07;;
7783;SDS011;19359;51.402;6.778;2022-08-21T05:03:58;11.30;;;6.97;;
7783;SDS011;19359;51.402;6.778;2022-08-21T05:06:27;8.60;;;6.78;;
7783;SDS011;19359;51.402;6.778;2022-08-21T05:08:56;12.48;;;7.45;;
7783;SDS011;19359;51.402;6.778;2022-08-21T05:11:24;10.13;;;7.50;;
7783;SDS011;19359;51.402;6.778;2022-08-21T05:13:51;9.77;;;8.15;;
7783;SDS011;19359;51.402;6.778;2022-08-21T05:16:17;10.27;;;7.95;;
7783;SDS011;19359;51.402;6.778;2022-08-21T05:18:44;11.40;;;8.85;;
7783;SDS011;19359;51.402;6.778;2022-08-21T05:21:12;18.33;;;8.32;;
7783;SDS011;19359;51.402;6.778;2022-08-21T05:23:39;11.73;;;8.70;;
7783;SDS011;19359;51.402;6.778;2022-08-21T05:26:06;12.80;;;8.77;;
7783;SDS011;19359;51.402;6.778;2022-08-21T05:28:33;11.40;;;8.38;;
7783;SDS011;19359;51.402;6.778;2022-08-21T05:30:59;15.88;;;9.13;;
7783;SDS011;19359;51.402;6.778;2022-08-21T05:33:26;10.77;;;9.02;;
7783;SDS011;19359;51.402;6.778;2022-08-21T05:35:53;12.02;;;9.20;;
7783;SDS011;19359;51.402;6.778;2022-08-21T05:38:23;13.85;;;10.00;;
7783;SDS011;19359;51.402;6.778;2022-08-21T05:40:52;17.58;;;9.45;;
7783;SDS011;19359;51.402;6.778;2022-08-21T05:43:19;13.10;;;9.52;;
7783;SDS011;19359;51.402;6.778;2022-08-21T05:45:46;14.07;;;10.13;;
7783;SDS011;19359;51.402;6.778;2022-08-21T05:48:14;15.75;;;9.63;;
7783;SDS011;19359;51.402;6.778;2022-08-21T05:50:44;12.20;;;9.85;;
7783;SDS011;19359;51.402;6.778;2022-08-21T05:53:12;15.38;;;9.38;;
7783;SDS011;19359;51.402;6.778;2022-08-21T05:55:41;12.50;;;8.98;;
7783;SDS011;19359;51.402;6.778;2022-08-21T05:58:08;10.40;;;8.55;;
7783;SDS011;19359;51.402;6.778;2022-08-21T06:00:35;11.18;;;8.95;;
7783;SDS011;19359;51.402;6.778;2022-08-21T06:03:02;16.63;;;9.60;;
7783;SDS011;19359;51.402;6.778;2022-08-21T06:05:29;12.98;;;8.80;;
7783;SDS011;19359;51.402;6.778;2022-08-21T06:07:56;10.18;;;9.10;;
7783;SDS011;19359;51.402;6.778;2022-08-21T06:10:23;18.35;;;8.80;;
7783;SDS011;19359;51.402;6.778;2022-08-21T06:12:53;11.50;;;8.65;;
7783;SDS011;19359;51.402;6.778;2022-08-21T06:15:20;10.15;;;7.22;;
7783;SDS011;19359;51.402;6.778;2022-08-21T06:17:47;11.13;;;6.55;;
7783;SDS011;19359;51.402;6.778;2022-08-21T06:20:14;7.38;;;6.88;;
7783;SDS011;19359;51.402;6.778;2022-08-21T06:22:41;9.27;;;6.00;;
7783;SDS011;19359;51.402;6.778;2022-08-21T06:25:08;9.90;;;6.35;;
7783;SDS011;19359;51.402;6.778;2022-08-21T06:27:35;8.02;;;5.15;;
7783;SDS011;19359;51.402;6.778;2022-08-21T06:30:04;10.13;;;4.57;;
7783;SDS011;19359;51.402;6.778;2022-08-21T06:32:31;11.48;;;4.60;;
7783;SDS011;19359;51.402;6.778;2022-08-21T06:34:58;14.25;;;5.13;;
7783;SDS011;19359;51.402;6.778;2022-08-21T06:37:25;11.13;;;4.72;;
7783;SDS011;19359;51.402;6.778;2022-08-21T06:39:52;9.10;;;3.90;;
7783;SDS011;19359;51.402;6.778;2022-08-21T06:42:19;8.98;;;3.90;;
7783;SDS011;19359;51.402;6.778;2022-08-21T06:44:46;5.90;;;3.97;;
7783;SDS011;19359;51.402;6.778;2022-08-21T06:47:15;4.00;;;3.10;;
7783;SDS011;19359;51.402;6.778;2022-08-21T06:49:41;13.85;;;3.47;;
7783;SDS011;19359;51.402;6.778;2022-08-21T06:52:08;5.60;;;3.85;;
7783;SDS011;19359;51.402;6.778;2022-08-21T06:54:36;8.98;;;3.53;;
7783;SDS011;19359;51.402;6.778;2022-08-21T06:57:03;8.93;;;3.38;;
7783;SDS011;19359;51.402;6.778;2022-08-21T06:59:30;5.47;;;2.75;;
7783;SDS011;19359;51.402;6.778;2022-08-21T07:01:57;7.65;;;3.63;;
7783;SDS011;19359;51.402;6.778;2022-08-21T07:04:26;8.38;;;3.90;;
7783;SDS011;19359;51.402;6.778;2022-08-21T07:06:53;9.43;;;3.70;;
7783;SDS011;19359;51.402;6.778;2022-08-21T07:09:19;8.68;;;3.95;;
7783;SDS011;19359;51.402;6.778;2022-08-21T07:11:47;6.68;;;3.17;;
7783;SDS011;19359;51.402;6.778;2022-08-21T07:14:17;10.32;;;2.92;;
7783;SDS011;19359;51.402;6.778;2022-08-21T07:16:44;4.45;;;3.08;;
7783;SDS011;19359;51.402;6.778;2022-08-21T07:19:11;9.85;;;4.00;;
7783;SDS011;19359;51.402;6.778;2022-08-21T07:21:39;7.88;;;3.47;;
7783;SDS011;19359;51.402;6.778;2022-08-21T07:24:06;10.73;;;3.00;;
7783;SDS011;19359;51.402;6.778;2022-08-21T07:26:33;8.15;;;3.65;;
7783;SDS011;19359;51.402;6.778;2022-08-21T07:29:00;11.75;;;3.38;;
7783;SDS011;19359;51.402;6.778;2022-08-21T07:31:27;9.82;;;2.88;;
7783;SDS011;19359;51.402;6.778;2022-08-21T07:33:54;6.72;;;3.63;;
7783;SDS011;19359;51.402;6.778;2022-08-21T07:36:21;8.13;;;3.40;;
7783;SDS011;19359;51.402;6.778;2022-08-21T07:38:50;6.13;;;3.20;;
7783;SDS011;19359;51.402;6.778;2022-08-21T07:41:17;9.88;;;3.15;;
7783;SDS011;19359;51.402;6.778;2022-08-21T07:43:45;6.10;;;2.47;;
7783;SDS011;19359;51.402;6.778;2022-08-21T07:46:13;4.18;;;1.55;;
7783;SDS011;19359;51.402;6.778;2022-08-21T07:48:40;6.13;;;1.42;;
7783;SDS011;19359;51.402;6.778;2022-08-21T07:51:07;4.88;;;1.30;;
7783;SDS011;19359;51.402;6.778;2022-08-21T07:53:36;2.20;;;1.10;;
7783;SDS011;19359;51.402;6.778;2022-08-21T07:56:05;1.25;;;0.90;;
7783;SDS011;19359;51.402;6.778;2022-08-21T07:58:33;1.50;;;0.77;;
7783;SDS011;19359;51.402;6.778;2022-08-21T08:01:00;2.42;;;0.70;;
7783;SDS011;19359;51.402;6.778;2022-08-21T08:03:27;3.88;;;1.27;;
7783;SDS011;19359;51.402;6.778;2022-08-21T08:05:54;2.67;;;0.98;;
7783;SDS011;19359;51.402;6.778;2022-08-21T08:08:21;3.40;;;0.63;;
7783;SDS011;19359;51.402;6.778;2022-08-21T08:10:48;3.03;;;1.02;;
7783;SDS011;19359;51.402;6.778;2022-08-21T08:13:17;1.63;;;0.80;;
7783;SDS011;19359;51.402;6.778;2022-08-21T08:15:44;3.22;;;0.80;;
7783;SDS011;19359;51.402;6.778;2022-08-21T08:18:10;1.75;;;0.70;;
7783;SDS011;19359;51.402;6.778;2022-08-21T08:20:38;2.63;;;1.05;;
7783;SDS011;19359;51.402;6.778;2022-08-21T08:23:06;5.70;;;1.13;;
7783;SDS011;19359;51.402;6.778;2022-08-21T08:25:32;2.05;;;0.82;;
7783;SDS011;19359;51.402;6.778;2022-08-21T08:27:59;5.63;;;0.90;;
7783;SDS011;19359;51.402;6.778;2022-08-21T08:30:27;2.25;;;0.60;;
7783;SDS011;19359;51.402;6.778;2022-08-21T08:32:54;1.05;;;0.60;;
7783;SDS011;19359;51.402;6.778;2022-08-21T08:35:22;1.05;;;0.95;;
7783;SDS011;19359;51.402;6.778;2022-08-21T08:37:50;3.40;;;0.73;;
7783;SDS011;19359;51.402;6.778;2022-08-21T08:40:18;3.13;;;1.10;;
7783;SDS011;19359;51.402;6.778;2022-08-21T08:42:49;5.25;;;1.00;;
7783;SDS011;19359;51.402;6.778;2022-08-21T08:45:18;4.03;;;0.95;;
7783;SDS011;19359;51.402;6.778;2022-08-21T08:47:49;2.60;;;0.60;;
7783;SDS011;19359;51.402;6.778;2022-08-21T08:50:23;1.92;;;0.80;;
7783;SDS011;19359;51.402;6.778;2022-08-21T08:52:57;2.55;;;0.88;;
7783;SDS011;19359;51.402;6.778;2022-08-21T08:55:32;4.95;;;0.90;;
7783;SDS011;19359;51.402;6.778;2022-08-21T08:58:02;1.75;;;0.50;;
7783;SDS011;19359;51.402;6.778;2022-08-21T09:00:29;3.40;;;0.77;;
7783;SDS011;19359;51.402;6.778;2022-08-21T09:03:00;2.92;;;0.50;;
7783;SDS011;19359;51.402;6.778;2022-08-21T09:05:30;0.82;;;0.82;;
7783;SDS011;19359;51.402;6.778;2022-08-21T09:11:01;4.28;;;0.98;;
7783;SDS011;19359;51.402;6.778;2022-08-21T09:13:32;3.15;;;0.77;;
7783;SDS011;19359;51.402;6.778;2022-08-21T09:16:18;4.72;;;0.70;;
7783;SDS011;19359;51.402;6.778;2022-08-21T09:18:58;5.47;;;0.50;;
7783;SDS011;19359;51.402;6.778;2022-08-21T09:21:33;4.10;;;0.80;;
7783;SDS011;19359;51.402;6.778;2022-08-21T09:24:12;3.60;;;0.95;;
7783;SDS011;19359;51.402;6.778;2022-08-21T09:26:54;3.80;;;0.75;;
7783;SDS011;19359;51.402;6.778;2022-08-21T09:29:36;3.38;;;0.70;;
7783;SDS011;19359;51.402;6.778;2022-08-21T09:32:16;2.17;;;0.50;;
7783;SDS011;19359;51.402;6.778;2022-08-21T09:34:56;4.30;;;1.08;;
7783;SDS011;19359;51.402;6.778;2022-08-21T09:37:24;4.57;;;1.08;;
7783;SDS011;19359;51.402;6.778;2022-08-21T09:39:54;6.80;;;0.90;;
7783;SDS011;19359;51.402;6.778;2022-08-21T09:42:23;2.95;;;0.70;;
7783;SDS011;19359;51.402;6.778;2022-08-21T09:45:05;2.13;;;0.70;;
7783;SDS011;19359;51.402;6.778;2022-08-21T09:47:37;3.83;;;0.68;;
7783;SDS011;19359;51.402;6.778;2022-08-21T09:50:09;3.20;;;0.60;;
7783;SDS011;19359;51.402;6.778;2022-08-21T09:52:42;0.73;;;0.47;;
7783;SDS011;19359;51.402;6.778;2022-08-21T09:55:15;2.17;;;1.05;;
7783;SDS011;19359;51.402;6.778;2022-08-21T09:57:58;2.70;;;0.63;;
7783;SDS011;19359;51.402;6.778;2022-08-21T10:00:27;1.17;;;0.63;;
7783;SDS011;19359;51.402;6.778;2022-08-21T10:03:06;4.05;;;0.88;;
7783;SDS011;19359;51.402;6.778;2022-08-21T10:05:36;4.18;;;0.63;;
7783;SDS011;19359;51.402;6.778;2022-08-21T10:08:04;3.03;;;1.00;;
7783;SDS011;19359;51.402;6.778;2022-08-21T10:10:31;3.17;;;0.60;;
7783;SDS011;19359;51.402;6.778;2022-08-21T10:13:03;1.08;;;1.05;;
7783;SDS011;19359;51.402;6.778;2022-08-21T10:15:40;1.20;;;0.70;;
7783;SDS011;19359;51.402;6.778;2022-08-21T10:18:15;2.85;;;0.73;;
7783;SDS011;19359;51.402;6.778;2022-08-21T10:20:52;3.92;;;1.02;;
7783;SDS011;19359;51.402;6.778;2022-08-21T10:23:29;1.35;;;0.73;;
7783;SDS011;19359;51.402;6.778;2022-08-21T10:26:09;3.05;;;0.77;;
7783;SDS011;19359;51.402;6.778;2022-08-21T10:28:45;2.97;;;1.02;;
7783;SDS011;19359;51.402;6.778;2022-08-21T10:31:21;2.50;;;1.10;;
7783;SDS011;19359;51.402;6.778;2022-08-21T10:33:59;0.98;;;0.60;;
7783;SDS011;19359;51.402;6.778;2022-08-21T10:36:37;2.28;;;0.63;;
7783;SDS011;19359;51.402;6.778;2022-08-21T10:39:13;1.42;;;0.70;;
7783;SDS011;19359;51.402;6.778;2022-08-21T10:41:50;5.78;;;0.82;;
7783;SDS011;19359;51.402;6.778;2022-08-21T10:44:47;4.95;;;0.88;;
7783;SDS011;19359;51.402;6.778;2022-08-21T10:47:24;3.00;;;0.40;;
7783;SDS011;19359;51.402;6.778;2022-08-21T10:50:00;3.35;;;0.60;;
7783;SDS011;19359;51.402;6.778;2022-08-21T10:52:40;3.22;;;0.93;;
7783;SDS011;19359;51.402;6.778;2022-08-21T10:55:17;3.42;;;0.73;;
7783;SDS011;19359;51.402;6.778;2022-08-21T10:57:47;3.28;;;0.55;;
7783;SDS011;19359;51.402;6.778;2022-08-21T11:00:19;1.30;;;0.50;;
7783;SDS011;19359;51.402;6.778;2022-08-21T11:02:49;1.25;;;0.80;;
7783;SDS011;19359;51.402;6.778;2022-08-21T11:05:24;0.65;;;0.35;;
7783;SDS011;19359;51.402;6.778;2022-08-21T11:08:00;0.30;;;0.30;;
7783;SDS011;19359;51.402;6.778;2022-08-21T11:10:32;0.80;;;0.30;;
7783;SDS011;19359;51.402;6.778;2022-08-21T11:13:04;3.40;;;0.60;;
7783;SDS011;19359;51.402;6.778;2022-08-21T11:15:37;3.13;;;0.40;;
7783;SDS011;19359;51.402;6.778;2022-08-21T11:18:15;2.40;;;0.60;;
7783;SDS011;19359;51.402;6.778;2022-08-21T11:20:48;4.57;;;0.50;;
7783;SDS011;19359;51.402;6.778;2022-08-21T11:23:22;5.30;;;0.82;;
7783;SDS011;19359;51.402;6.778;2022-08-21T11:25:55;0.80;;;0.52;;
7783;SDS011;19359;51.402;6.778;2022-08-21T11:28:29;2.38;;;0.70;;
7783;SDS011;19359;51.402;6.778;2022-08-21T11:31:02;2.65;;;0.50;;
7783;SDS011;19359;51.402;6.778;2022-08-21T11:33:53;3.33;;;0.50;;
7783;SDS011;19359;51.402;6.778;2022-08-21T11:36:30;1.40;;;0.65;;
7783;SDS011;19359;51.402;6.778;2022-08-21T11:39:07;1.48;;;0.45;;
7783;SDS011;19359;51.402;6.778;2022-08-21T11:41:42;0.50;;;0.35;;
7783;SDS011;19359;51.402;6.778;2022-08-21T11:44:15;3.25;;;0.50;;
7783;SDS011;19359;51.402;6.778;2022-08-21T11:46:52;1.77;;;0.50;;
7783;SDS011;19359;51.402;6.778;2022-08-21T11:49:42;3.60;;;0.32;;
7783;SDS011;19359;51.402;6.778;2022-08-21T11:52:16;0.63;;;0.40;;
7783;SDS011;19359;51.402;6.778;2022-08-21T11:54:49;3.10;;;0.70;;
7783;SDS011;19359;51.402;6.778;2022-08-21T11:57:20;2.72;;;0.63;;
7783;SDS011;19359;51.402;6.778;2022-08-21T11:59:49;0.73;;;0.40;;
7783;SDS011;19359;51.402;6.778;2022-08-21T12:02:23;0.45;;;0.40;;
7783;SDS011;19359;51.402;6.778;2022-08-21T12:04:55;1.38;;;0.30;;
7783;SDS011;19359;51.402;6.778;2022-08-21T12:07:30;2.00;;;0.50;;
7783;SDS011;19359;51.402;6.778;2022-08-21T12:10:02;1.65;;;0.50;;
7783;SDS011;19359;51.402;6.778;2022-08-21T12:12:32;1.38;;;0.55;;
7783;SDS011;19359;51.402;6.778;2022-08-21T12:15:13;0.65;;;0.43;;
7783;SDS011;19359;51.402;6.778;2022-08-21T12:17:52;1.85;;;0.60;;
7783;SDS011;19359;51.402;6.778;2022-08-21T12:20:41;1.15;;;0.50;;
7783;SDS011;19359;51.402;6.778;2022-08-21T12:26:03;1.77;;;0.50;;
7783;SDS011;19359;51.402;6.778;2022-08-21T12:28:39;0.60;;;0.40;;
7783;SDS011;19359;51.402;6.778;2022-08-21T12:31:16;1.33;;;0.35;;
7783;SDS011;19359;51.402;6.778;2022-08-21T12:33:50;3.92;;;0.52;;
7783;SDS011;19359;51.402;6.778;2022-08-21T12:36:20;1.13;;;0.52;;
7783;SDS011;19359;51.402;6.778;2022-08-21T12:38:51;1.17;;;0.40;;
7783;SDS011;19359;51.402;6.778;2022-08-21T12:41:24;2.00;;;0.43;;
7783;SDS011;19359;51.402;6.778;2022-08-21T12:43:56;0.38;;;0.38;;
7783;SDS011;19359;51.402;6.778;2022-08-21T12:46:27;1.73;;;0.43;;
7783;SDS011;19359;51.402;6.778;2022-08-21T12:49:01;1.33;;;0.90;;
7783;SDS011;19359;51.402;6.778;2022-08-21T12:51:36;6.13;;;0.52;;
7783;SDS011;19359;51.402;6.778;2022-08-21T12:54:21;4.72;;;0.60;;
7783;SDS011;19359;51.402;6.778;2022-08-21T12:56:56;0.93;;;0.30;;
7783;SDS011;19359;51.402;6.778;2022-08-21T12:59:25;2.83;;;0.50;;
7783;SDS011;19359;51.402;6.778;2022-08-21T13:01:52;3.40;;;0.50;;
7783;SDS011;19359;51.402;6.778;2022-08-21T13:04:22;2.17;;;0.43;;
7783;SDS011;19359;51.402;6.778;2022-08-21T13:06:53;1.63;;;0.40;;
7783;SDS011;19359;51.402;6.778;2022-08-21T13:09:23;2.72;;;0.40;;
7783;SDS011;19359;51.402;6.778;2022-08-21T13:11:53;0.35;;;0.35;;
7783;SDS011;19359;51.402;6.778;2022-08-21T13:14:23;1.10;;;0.38;;
7783;SDS011;19359;51.402;6.778;2022-08-21T13:16:54;1.65;;;0.35;;
7783;SDS011;19359;51.402;6.778;2022-08-21T13:19:21;1.27;;;0.40;;
7783;SDS011;19359;51.402;6.778;2022-08-21T13:21:49;2.08;;;0.70;;
7783;SDS011;19359;51.402;6.778;2022-08-21T13:24:18;1.95;;;0.40;;
7783;SDS011;19359;51.402;6.778;2022-08-21T13:26:47;1.60;;;0.22;;
7783;SDS011;19359;51.402;6.778;2022-08-21T13:29:15;0.95;;;0.40;;
7783;SDS011;19359;51.402;6.778;2022-08-21T13:31:48;1.08;;;0.50;;
7783;SDS011;19359;51.402;6.778;2022-08-21T13:34:17;1.83;;;0.60;;
7783;SDS011;19359;51.402;6.778;2022-08-21T13:36:46;4.25;;;0.30;;
7783;SDS011;19359;51.402;6.778;2022-08-21T13:39:14;2.97;;;0.60;;
7783;SDS011;19359;51.402;6.778;2022-08-21T13:41:44;1.25;;;0.30;;
7783;SDS011;19359;51.402;6.778;2022-08-21T13:44:15;0.85;;;0.43;;
7783;SDS011;19359;51.402;6.778;2022-08-21T13:46:43;2.22;;;0.85;;
7783;SDS011;19359;51.402;6.778;2022-08-21T13:49:12;0.75;;;0.40;;
7783;SDS011;19359;51.402;6.778;2022-08-21T13:51:42;0.82;;;0.40;;
7783;SDS011;19359;51.402;6.778;2022-08-21T13:54:13;4.03;;;0.82;;
7783;SDS011;19359;51.402;6.778;2022-08-21T13:56:43;4.38;;;0.40;;
7783;SDS011;19359;51.402;6.778;2022-08-21T13:59:11;2.10;;;0.32;;
7783;SDS011;19359;51.402;6.778;2022-08-21T14:01:39;0.75;;;0.45;;
7783;SDS011;19359;51.402;6.778;2022-08-21T14:04:22;2.08;;;0.60;;
7783;SDS011;19359;51.402;6.778;2022-08-21T14:06:51;0.38;;;0.20;;
7783;SDS011;19359;51.402;6.778;2022-08-21T14:09:21;1.58;;;0.38;;
7783;SDS011;19359;51.402;6.778;2022-08-21T14:11:54;1.17;;;0.60;;
7783;SDS011;19359;51.402;6.778;2022-08-21T14:14:23;0.73;;;0.30;;
7783;SDS011;19359;51.402;6.778;2022-08-21T14:16:53;3.75;;;0.50;;
7783;SDS011;19359;51.402;6.778;2022-08-21T14:19:23;3.83;;;0.50;;
7783;SDS011;19359;51.402;6.778;2022-08-21T14:21:52;8.50;;;0.93;;
7783;SDS011;19359;51.402;6.778;2022-08-21T14:24:26;2.72;;;0.63;;
7783;SDS011;19359;51.402;6.778;2022-08-21T14:26:56;2.83;;;0.40;;
7783;SDS011;19359;51.402;6.778;2022-08-21T14:29:28;1.67;;;0.30;;
7783;SDS011;19359;51.402;6.778;2022-08-21T14:32:00;2.30;;;0.45;;
7783;SDS011;19359;51.402;6.778;2022-08-21T14:34:37;2.63;;;0.40;;
7783;SDS011;19359;51.402;6.778;2022-08-21T14:37:04;3.03;;;0.68;;
7783;SDS011;19359;51.402;6.778;2022-08-21T14:39:31;1.30;;;0.30;;
7783;SDS011;19359;51.402;6.778;2022-08-21T14:41:57;1.23;;;0.50;;
7783;SDS011;19359;51.402;6.778;2022-08-21T14:44:26;1.17;;;0.50;;
7783;SDS011;19359;51.402;6.778;2022-08-21T14:46:53;0.75;;;0.50;;
7783;SDS011;19359;51.402;6.778;2022-08-21T14:49:20;1.48;;;0.50;;
7783;SDS011;19359;51.402;6.778;2022-08-21T14:51:49;3.85;;;0.50;;
7783;SDS011;19359;51.402;6.778;2022-08-21T14:54:21;1.30;;;0.40;;
7783;SDS011;19359;51.402;6.778;2022-08-21T14:56:48;2.28;;;0.70;;
7783;SDS011;19359;51.402;6.778;2022-08-21T14:59:17;2.22;;;0.40;;
7783;SDS011;19359;51.402;6.778;2022-08-21T15:01:44;3.72;;;0.52;;
7783;SDS011;19359;51.402;6.778;2022-08-21T15:04:11;3.72;;;1.25;;
7783;SDS011;19359;51.402;6.778;2022-08-21T15:06:38;1.45;;;0.70;;
7783;SDS011;19359;51.402;6.778;2022-08-21T15:09:07;1.55;;;0.40;;
7783;SDS011;19359;51.402;6.778;2022-08-21T15:11:33;3.03;;;0.40;;
7783;SDS011;19359;51.402;6.778;2022-08-21T15:14:01;1.50;;;0.50;;
7783;SDS011;19359;51.402;6.778;2022-08-21T15:16:32;3.42;;;0.50;;
7783;SDS011;19359;51.402;6.778;2022-08-21T15:19:00;2.10;;;0.52;;
7783;SDS011;19359;51.402;6.778;2022-08-21T15:21:27;1.50;;;0.65;;